createdAt,value
2022-12-29T00:02:20.364Z,1.90
2022-12-29T00:04:47.165Z,1.90
2022-12-29T00:07:13.887Z,1.90
2022-12-29T00:09:40.675Z,1.90
2022-12-29T00:12:07.501Z,1.90
2022-12-29T00:14:52.584Z,1.80
2022-12-29T00:17:19.324Z,1.90
2022-12-29T00:20:04.701Z,1.80
2022-12-29T00:22:49.969Z,1.80
2022-12-29T00:25:35.356Z,1.90
2022-12-29T00:28:20.786Z,1.90
2022-12-29T00:31:06.040Z,1.80
2022-12-29T00:33:52.207Z,1.80
2022-12-29T00:36:29.403Z,1.80
2022-12-29T00:39:17.715Z,1.80
2022-12-29T00:42:03.321Z,1.80
2022-12-29T00:44:30.204Z,1.80
2022-12-29T00:46:57.079Z,1.70
2022-12-29T00:49:32.755Z,1.70
2022-12-29T00:52:00.713Z,1.70
2022-12-29T00:54:28.775Z,1.70
2022-12-29T00:56:55.549Z,1.70
2022-12-29T00:59:22.454Z,1.90
2022-12-29T01:01:49.305Z,1.80
2022-12-29T01:04:16.181Z,1.70
2022-12-29T01:06:45.181Z,1.60
2022-12-29T01:09:30.352Z,1.50
2022-12-29T01:11:57.192Z,1.50
2022-12-29T01:14:24.061Z,1.50
2022-12-29T01:16:51.115Z,1.50
2022-12-29T01:19:18.273Z,1.50
2022-12-29T01:21:45.583Z,1.40
2022-12-29T01:24:12.343Z,1.40
2022-12-29T01:26:39.147Z,1.50
2022-12-29T01:29:05.924Z,1.50
2022-12-29T01:31:32.842Z,1.60
2022-12-29T01:33:59.700Z,1.40
2022-12-29T01:36:26.417Z,1.40
2022-12-29T01:38:53.226Z,1.50
2022-12-29T01:41:19.999Z,1.50
2022-12-29T01:43:58.045Z,1.60
2022-12-29T01:46:38.698Z,1.50
2022-12-29T01:49:20.048Z,1.50
2022-12-29T01:51:48.715Z,1.50
2022-12-29T01:54:23.371Z,1.50
2022-12-29T01:56:51.413Z,1.50
2022-12-29T01:59:20.334Z,1.50
2022-12-29T02:01:47.192Z,1.50
2022-12-29T02:04:14.169Z,1.50
2022-12-29T02:06:53.677Z,1.50
2022-12-29T02:09:20.545Z,1.50
2022-12-29T02:11:47.289Z,1.50
2022-12-29T02:14:14.573Z,1.50
2022-12-29T02:17:15.464Z,1.40
2022-12-29T02:20:12.766Z,1.40
2022-12-29T02:23:16.447Z,1.30
2022-12-29T02:25:50.126Z,1.40
2022-12-29T02:28:54.474Z,1.40
2022-12-29T02:31:30.127Z,1.40
2022-12-29T02:34:22.620Z,1.30
2022-12-29T02:37:06.511Z,1.30
2022-12-29T02:39:39.866Z,1.30
2022-12-29T02:42:24.972Z,1.20
2022-12-29T02:45:07.174Z,1.30
2022-12-29T02:47:51.150Z,1.20
2022-12-29T02:50:28.321Z,1.20
2022-12-29T02:53:03.540Z,1.20
2022-12-29T02:55:30.329Z,1.20
2022-12-29T02:58:23.638Z,1.10
2022-12-29T03:01:14.249Z,1.20
2022-12-29T03:04:07.121Z,1.10
2022-12-29T03:07:12.175Z,1.10
2022-12-29T03:09:43.930Z,1.10
2022-12-29T03:12:23.435Z,1.00
2022-12-29T03:15:11.680Z,1.00
2022-12-29T03:17:46.667Z,1.00
2022-12-29T03:20:20.062Z,1.00
2022-12-29T03:22:48.157Z,0.90
2022-12-29T03:25:30.137Z,0.90
2022-12-29T03:27:58.486Z,0.90
2022-12-29T03:30:25.370Z,0.90
2022-12-29T03:32:54.433Z,0.80
2022-12-29T03:35:23.001Z,0.80
2022-12-29T03:38:01.170Z,0.70
2022-12-29T03:40:28.397Z,0.70
2022-12-29T03:42:55.258Z,0.80
2022-12-29T03:45:22.095Z,0.80
2022-12-29T03:47:48.833Z,0.70
2022-12-29T03:50:15.677Z,0.70
2022-12-29T03:52:42.433Z,0.70
2022-12-29T03:55:09.546Z,0.70
2022-12-29T03:57:36.453Z,0.70
2022-12-29T04:00:05.137Z,0.70
2022-12-29T04:02:32.229Z,0.70
2022-12-29T04:04:59.160Z,0.70
2022-12-29T04:07:25.950Z,0.60
2022-12-29T04:09:52.725Z,0.50
2022-12-29T04:12:19.525Z,0.50
2022-12-29T04:14:46.223Z,0.50
2022-12-29T04:17:12.930Z,0.60
2022-12-29T04:19:39.775Z,0.50
2022-12-29T04:22:06.559Z,0.50
2022-12-29T04:24:34.220Z,0.50
2022-12-29T04:27:00.931Z,0.50
2022-12-29T04:29:27.725Z,0.50
2022-12-29T04:31:54.501Z,0.50
2022-12-29T04:34:21.297Z,0.40
2022-12-29T04:36:48.173Z,0.50
2022-12-29T04:39:14.892Z,0.40
2022-12-29T04:41:41.698Z,0.40
2022-12-29T04:44:08.477Z,0.40
2022-12-29T04:46:35.281Z,0.40
2022-12-29T04:49:05.686Z,0.40
2022-12-29T04:51:32.458Z,0.40
2022-12-29T04:53:59.134Z,0.40
2022-12-29T04:56:25.855Z,0.30
2022-12-29T04:58:52.596Z,0.30
2022-12-29T05:01:19.404Z,0.30
2022-12-29T05:03:46.336Z,0.20
2022-12-29T05:06:13.625Z,0.30
2022-12-29T05:08:40.379Z,0.30
2022-12-29T05:11:07.144Z,0.20
2022-12-29T05:13:34.443Z,0.20
2022-12-29T05:16:01.264Z,0.20
2022-12-29T05:18:28.032Z,0.10
2022-12-29T05:20:57.883Z,0.10
2022-12-29T05:23:24.707Z,0.10
2022-12-29T05:25:51.771Z,0.10
2022-12-29T05:28:18.703Z,0.10
2022-12-29T05:30:45.579Z,0.00
2022-12-29T05:33:12.834Z,0.00
2022-12-29T05:35:39.671Z,0.00
2022-12-29T05:38:06.532Z,0.00
2022-12-29T05:40:34.323Z,-0.10
2022-12-29T05:43:01.120Z,-0.10
2022-12-29T05:45:27.919Z,-0.20
2022-12-29T05:47:54.696Z,-0.30
2022-12-29T05:50:21.445Z,-0.20
2022-12-29T05:52:48.310Z,-0.20
2022-12-29T05:55:15.098Z,-0.20
2022-12-29T05:57:41.947Z,-0.20
2022-12-29T06:00:09.265Z,-0.20
2022-12-29T06:02:36.173Z,-0.20
2022-12-29T06:05:03.048Z,-0.20
2022-12-29T06:07:29.752Z,-0.10
2022-12-29T06:09:56.471Z,-0.10
2022-12-29T06:12:23.306Z,-0.20
2022-12-29T06:14:50.170Z,-0.30
2022-12-29T06:17:16.945Z,-0.20
2022-12-29T06:19:44.993Z,-0.20
2022-12-29T06:22:13.177Z,-0.20
2022-12-29T06:24:40.197Z,-0.10
2022-12-29T06:27:06.917Z,-0.20
2022-12-29T06:29:34.039Z,-0.20
2022-12-29T06:32:00.981Z,-0.20
2022-12-29T06:34:27.851Z,-0.20
2022-12-29T06:36:54.991Z,-0.30
2022-12-29T06:39:21.690Z,-0.30
2022-12-29T06:41:48.466Z,-0.30
2022-12-29T06:44:15.274Z,-0.30
2022-12-29T06:46:41.976Z,-0.30
2022-12-29T06:49:08.749Z,-0.40
2022-12-29T06:51:35.519Z,-0.40
2022-12-29T06:54:02.292Z,-0.40
2022-12-29T06:56:29.076Z,-0.40
2022-12-29T06:58:55.838Z,-0.40
2022-12-29T07:01:22.704Z,-0.30
2022-12-29T07:03:50.728Z,-0.30
2022-12-29T07:06:17.579Z,-0.30
2022-12-29T07:08:44.385Z,-0.30
2022-12-29T07:11:11.162Z,-0.40
2022-12-29T07:13:38.099Z,-0.40
2022-12-29T07:16:11.342Z,-0.50
2022-12-29T07:18:38.158Z,-0.40
2022-12-29T07:21:05.142Z,-0.40
2022-12-29T07:23:32.088Z,-0.40
2022-12-29T07:26:03.134Z,-0.40
2022-12-29T07:28:30.338Z,-0.40
2022-12-29T07:30:57.116Z,-0.30
2022-12-29T07:33:23.898Z,-0.40
2022-12-29T07:35:50.714Z,-0.40
2022-12-29T07:38:17.691Z,-0.40
2022-12-29T07:40:44.594Z,-0.30
2022-12-29T07:43:11.304Z,-0.40
2022-12-29T07:45:38.083Z,-0.40
2022-12-29T07:48:08.588Z,-0.30
2022-12-29T07:50:36.176Z,-0.30
2022-12-29T07:53:04.275Z,-0.30
2022-12-29T07:55:31.039Z,-0.30
2022-12-29T07:57:57.953Z,-0.20
2022-12-29T08:00:24.878Z,-0.20
2022-12-29T08:02:51.704Z,-0.20
2022-12-29T08:05:18.540Z,-0.10
2022-12-29T08:07:45.464Z,-0.10
2022-12-29T08:10:12.405Z,0.00
2022-12-29T08:12:39.667Z,0.00
2022-12-29T08:15:07.303Z,-0.10
2022-12-29T08:17:34.113Z,-0.10
2022-12-29T08:20:00.872Z,-0.10
2022-12-29T08:22:27.651Z,-0.10
2022-12-29T08:24:54.415Z,0.00
2022-12-29T08:27:21.451Z,0.10
2022-12-29T08:29:50.262Z,0.10
2022-12-29T08:32:17.084Z,0.20
2022-12-29T08:34:43.840Z,0.30
2022-12-29T08:37:10.618Z,0.40
2022-12-29T08:39:37.398Z,0.50
2022-12-29T08:42:04.181Z,0.50
2022-12-29T08:44:31.226Z,0.50
2022-12-29T08:46:57.976Z,0.60
2022-12-29T08:49:24.828Z,0.60
2022-12-29T08:51:51.765Z,0.60
2022-12-29T08:54:18.527Z,0.70
2022-12-29T08:56:46.136Z,0.70
2022-12-29T08:59:12.908Z,0.70
2022-12-29T09:01:41.723Z,0.90
2022-12-29T09:04:17.667Z,0.90
2022-12-29T09:06:45.817Z,1.00
2022-12-29T09:09:13.023Z,1.10
2022-12-29T09:11:39.881Z,1.10
2022-12-29T09:14:06.695Z,1.20
2022-12-29T09:16:33.563Z,1.30
2022-12-29T09:19:00.854Z,1.30
2022-12-29T09:21:27.620Z,1.40
2022-12-29T09:23:54.416Z,1.50
2022-12-29T09:26:21.175Z,1.60
2022-12-29T09:28:48.230Z,1.70
2022-12-29T09:31:15.250Z,1.70
2022-12-29T09:33:42.110Z,1.80
2022-12-29T09:36:09.552Z,1.90
2022-12-29T09:38:36.335Z,2.00
2022-12-29T09:41:28.012Z,2.10
2022-12-29T09:44:06.590Z,2.10
2022-12-29T09:46:35.443Z,2.10
2022-12-29T09:49:25.698Z,2.20
2022-12-29T09:51:54.925Z,2.30
2022-12-29T09:55:02.399Z,2.40
2022-12-29T09:57:36.658Z,2.50
2022-12-29T10:00:28.704Z,2.60
2022-12-29T10:03:07.056Z,2.60
2022-12-29T10:05:40.607Z,2.70
2022-12-29T10:08:34.523Z,2.70
2022-12-29T10:11:19.893Z,2.80
2022-12-29T10:14:04.893Z,2.90
2022-12-29T10:16:37.576Z,3.00
2022-12-29T10:19:16.211Z,3.00
2022-12-29T10:22:04.941Z,3.10
2022-12-29T10:24:31.973Z,3.20
2022-12-29T10:26:58.895Z,3.30
2022-12-29T10:29:34.849Z,3.40
2022-12-29T10:32:22.333Z,3.50
2022-12-29T10:34:51.704Z,3.50
2022-12-29T10:37:18.446Z,3.60
2022-12-29T10:39:48.919Z,3.70
2022-12-29T10:42:37.858Z,3.70
2022-12-29T10:45:05.587Z,3.80
2022-12-29T10:47:38.968Z,3.90
2022-12-29T10:50:06.145Z,3.90
2022-12-29T10:52:32.921Z,4.00
2022-12-29T10:55:03.525Z,4.10
2022-12-29T10:57:30.348Z,4.10
2022-12-29T10:59:57.095Z,4.20
2022-12-29T11:03:02.348Z,4.20
2022-12-29T11:05:32.132Z,4.30
2022-12-29T11:08:02.456Z,4.20
2022-12-29T11:10:39.839Z,4.30
2022-12-29T11:13:33.468Z,4.30
2022-12-29T11:16:04.025Z,4.40
2022-12-29T11:18:38.273Z,4.40
2022-12-29T11:21:07.534Z,4.40
2022-12-29T11:23:39.222Z,4.40
2022-12-29T11:26:11.876Z,4.50
2022-12-29T11:28:39.326Z,4.60
2022-12-29T11:31:07.419Z,4.60
2022-12-29T11:33:38.308Z,4.60
2022-12-29T11:36:09.711Z,4.70
2022-12-29T11:38:38.312Z,4.70
2022-12-29T11:41:05.806Z,4.70
2022-12-29T11:43:38.231Z,4.70
2022-12-29T11:46:05.102Z,4.70
2022-12-29T11:48:39.703Z,4.70
2022-12-29T11:51:06.585Z,4.70
2022-12-29T11:53:39.793Z,4.60
2022-12-29T11:56:09.096Z,4.70
2022-12-29T11:58:37.663Z,4.70
2022-12-29T12:01:06.459Z,4.80
2022-12-29T12:03:33.739Z,4.90
2022-12-29T12:06:02.611Z,4.90
2022-12-29T12:08:49.539Z,4.90
2022-12-29T12:11:21.337Z,5.00
2022-12-29T12:13:50.896Z,5.00
2022-12-29T12:16:22.509Z,5.10
2022-12-29T12:19:25.567Z,5.10
2022-12-29T12:21:56.165Z,5.20
2022-12-29T12:24:39.035Z,5.20
2022-12-29T12:27:21.690Z,5.20
2022-12-29T12:30:15.397Z,5.20
2022-12-29T12:33:06.033Z,5.20
2022-12-29T12:36:07.433Z,5.20
2022-12-29T12:38:55.639Z,5.20
2022-12-29T12:42:08.574Z,5.30
2022-12-29T12:44:47.041Z,5.40
2022-12-29T12:47:16.548Z,5.40
2022-12-29T12:50:00.843Z,5.40
2022-12-29T12:52:50.904Z,5.50
2022-12-29T12:55:36.679Z,5.50
2022-12-29T12:58:25.729Z,5.40
2022-12-29T13:01:18.173Z,5.40
2022-12-29T13:04:18.403Z,5.50
2022-12-29T13:07:16.614Z,5.50
2022-12-29T13:10:21.572Z,5.60
2022-12-29T13:13:26.845Z,5.60
2022-12-29T13:16:19.787Z,5.60
2022-12-29T13:18:54.455Z,5.50
2022-12-29T13:21:42.730Z,5.60
2022-12-29T13:24:24.258Z,5.80
2022-12-29T13:27:24.437Z,5.90
2022-12-29T13:29:54.010Z,5.90
2022-12-29T13:32:43.955Z,6.00
2022-12-29T13:35:34.199Z,6.00
2022-12-29T13:38:02.256Z,6.00
2022-12-29T13:40:35.013Z,6.00
2022-12-29T13:43:02.167Z,6.00
2022-12-29T13:45:30.761Z,6.00
2022-12-29T13:48:11.255Z,6.00
2022-12-29T13:50:39.433Z,6.10
2022-12-29T13:53:19.876Z,6.10
2022-12-29T13:55:50.792Z,6.00
2022-12-29T13:58:47.481Z,6.00
2022-12-29T14:01:32.279Z,6.00
2022-12-29T14:04:00.342Z,6.00
2022-12-29T14:06:35.715Z,6.00
2022-12-29T14:09:04.205Z,6.20
2022-12-29T14:11:38.710Z,6.10
2022-12-29T14:14:22.357Z,6.10
2022-12-29T14:16:49.165Z,6.10
2022-12-29T14:19:20.812Z,6.10
2022-12-29T14:22:00.421Z,6.00
2022-12-29T14:24:29.561Z,6.00
2022-12-29T14:26:56.324Z,6.00
2022-12-29T14:29:25.945Z,5.90
2022-12-29T14:31:53.344Z,5.90
2022-12-29T14:34:23.230Z,5.90
2022-12-29T14:37:00.853Z,5.90
2022-12-29T14:39:39.247Z,5.80
2022-12-29T14:42:14.321Z,5.80
2022-12-29T14:44:56.529Z,5.70
2022-12-29T14:47:32.367Z,5.50
2022-12-29T14:50:06.553Z,5.50
2022-12-29T14:52:33.371Z,5.60
2022-12-29T14:55:18.185Z,5.60
2022-12-29T14:57:52.560Z,5.60
2022-12-29T15:00:20.474Z,5.40
2022-12-29T15:02:54.660Z,5.40
2022-12-29T15:05:32.009Z,5.40
2022-12-29T15:07:58.860Z,5.30
2022-12-29T15:10:26.632Z,5.20
2022-12-29T15:12:54.791Z,5.20
2022-12-29T15:15:27.894Z,5.10
2022-12-29T15:17:54.678Z,5.10
2022-12-29T15:20:25.983Z,5.10
2022-12-29T15:22:57.683Z,5.20
2022-12-29T15:25:24.700Z,5.20
2022-12-29T15:28:01.848Z,5.30
2022-12-29T15:30:28.871Z,5.20
2022-12-29T15:32:55.678Z,5.20
2022-12-29T15:35:36.436Z,5.20
2022-12-29T15:38:15.018Z,5.20
2022-12-29T15:40:41.822Z,5.10
2022-12-29T15:43:23.905Z,5.10
2022-12-29T15:45:51.074Z,5.00
2022-12-29T15:48:20.316Z,4.90
2022-12-29T15:50:47.096Z,4.90
2022-12-29T15:53:19.370Z,4.90
2022-12-29T15:55:48.612Z,4.90
2022-12-29T15:58:30.731Z,4.90
2022-12-29T16:00:59.369Z,4.90
2022-12-29T16:03:27.423Z,4.90
2022-12-29T16:06:07.932Z,4.90
2022-12-29T16:08:39.309Z,4.90
2022-12-29T16:11:29.555Z,4.90
2022-12-29T16:13:56.398Z,4.90
2022-12-29T16:16:35.419Z,4.80
2022-12-29T16:19:04.976Z,4.90
2022-12-29T16:21:35.170Z,4.80
2022-12-29T16:24:05.406Z,4.80
2022-12-29T16:26:32.147Z,4.90
2022-12-29T16:29:00.624Z,4.90
2022-12-29T16:31:35.292Z,4.90
2022-12-29T16:34:25.125Z,4.80
2022-12-29T16:36:55.976Z,4.80
2022-12-29T16:39:27.524Z,4.70
2022-12-29T16:41:57.886Z,4.70
2022-12-29T16:44:28.019Z,4.70
2022-12-29T16:47:03.914Z,4.70
2022-12-29T16:49:32.278Z,4.70
2022-12-29T16:51:59.094Z,4.70
2022-12-29T16:54:45.600Z,4.60
2022-12-29T16:57:12.482Z,4.50
2022-12-29T16:59:40.812Z,4.50
2022-12-29T17:02:15.709Z,4.50
2022-12-29T17:04:42.639Z,4.40
2022-12-29T17:07:20.066Z,4.30
2022-12-29T17:09:46.822Z,4.30
2022-12-29T17:12:16.766Z,4.30
2022-12-29T17:14:52.170Z,4.30
2022-12-29T17:17:21.791Z,4.20
2022-12-29T17:19:50.650Z,4.20
2022-12-29T17:22:27.770Z,4.10
2022-12-29T17:24:55.276Z,4.10
2022-12-29T17:27:44.648Z,4.10
2022-12-29T17:30:16.114Z,4.00
2022-12-29T17:32:43.743Z,3.90
2022-12-29T17:35:17.229Z,3.80
2022-12-29T17:37:44.052Z,3.80
2022-12-29T17:40:16.449Z,3.80
2022-12-29T17:42:47.637Z,3.90
2022-12-29T17:45:16.340Z,3.80
2022-12-29T17:47:43.097Z,3.70
2022-12-29T17:50:18.329Z,3.70
2022-12-29T17:52:48.393Z,3.70
2022-12-29T17:55:16.845Z,3.70
2022-12-29T17:57:44.055Z,3.60
2022-12-29T18:00:17.325Z,3.60
2022-12-29T18:02:44.343Z,3.60
2022-12-29T18:05:30.520Z,3.60
2022-12-29T18:07:59.400Z,3.60
2022-12-29T18:10:27.553Z,3.50
2022-12-29T18:12:55.220Z,3.40
2022-12-29T18:15:34.748Z,3.30
2022-12-29T18:18:03.568Z,3.10
2022-12-29T18:20:33.355Z,3.00
2022-12-29T18:23:00.133Z,3.00
2022-12-29T18:25:33.893Z,3.10
2022-12-29T18:28:00.871Z,3.10
2022-12-29T18:30:27.629Z,3.20
2022-12-29T18:32:54.573Z,3.20
2022-12-29T18:35:36.807Z,3.20
2022-12-29T18:38:03.625Z,3.20
2022-12-29T18:40:30.328Z,3.20
2022-12-29T18:42:57.144Z,3.10
2022-12-29T18:45:24.834Z,3.10
2022-12-29T18:47:51.597Z,3.10
2022-12-29T18:50:18.465Z,3.10
2022-12-29T18:52:45.709Z,3.00
2022-12-29T18:55:16.999Z,2.90
2022-12-29T18:57:43.823Z,2.90
2022-12-29T19:00:11.410Z,2.90
2022-12-29T19:02:38.409Z,2.90
2022-12-29T19:05:14.175Z,2.80
2022-12-29T19:07:41.080Z,2.80
2022-12-29T19:10:08.070Z,2.90
2022-12-29T19:12:34.837Z,2.90
2022-12-29T19:15:02.352Z,2.90
2022-12-29T19:17:29.119Z,2.90
2022-12-29T19:19:55.865Z,2.90
2022-12-29T19:22:22.610Z,2.90
2022-12-29T19:24:50.879Z,2.80
2022-12-29T19:27:20.379Z,2.70
2022-12-29T19:29:47.185Z,2.70
2022-12-29T19:32:14.321Z,2.60
2022-12-29T19:34:41.084Z,2.50
2022-12-29T19:37:07.919Z,2.50
2022-12-29T19:39:34.631Z,2.50
2022-12-29T19:42:05.350Z,2.60
2022-12-29T19:44:32.428Z,2.60
2022-12-29T19:46:59.301Z,2.60
2022-12-29T19:49:26.099Z,2.60
2022-12-29T19:51:52.823Z,2.50
2022-12-29T19:54:19.576Z,2.40
2022-12-29T19:56:46.323Z,2.30
2022-12-29T19:59:13.275Z,2.30
2022-12-29T20:01:40.099Z,2.40
2022-12-29T20:04:07.079Z,2.40
2022-12-29T20:06:33.862Z,2.50
2022-12-29T20:09:02.579Z,2.50
2022-12-29T20:11:29.425Z,2.40
2022-12-29T20:13:56.164Z,2.30
2022-12-29T20:16:22.975Z,2.40
2022-12-29T20:18:49.778Z,2.50
2022-12-29T20:21:18.403Z,2.40
2022-12-29T20:23:45.408Z,2.40
2022-12-29T20:26:23.061Z,2.30
2022-12-29T20:28:49.997Z,2.20
2022-12-29T20:31:18.625Z,2.20
2022-12-29T20:33:45.613Z,2.20
2022-12-29T20:36:17.555Z,2.20
2022-12-29T20:38:44.580Z,2.20
2022-12-29T20:41:15.630Z,2.10
2022-12-29T20:43:42.605Z,2.00
2022-12-29T20:46:09.605Z,1.90
2022-12-29T20:48:36.469Z,1.80
2022-12-29T20:51:03.501Z,1.90
2022-12-29T20:53:31.313Z,1.90
2022-12-29T20:56:06.064Z,2.00
2022-12-29T20:58:33.026Z,2.00
2022-12-29T21:01:04.692Z,2.00
2022-12-29T21:03:31.642Z,2.00
2022-12-29T21:06:00.136Z,2.00
2022-12-29T21:08:27.746Z,2.00
2022-12-29T21:10:54.558Z,1.90
2022-12-29T21:13:21.375Z,1.80
2022-12-29T21:15:48.233Z,1.90
2022-12-29T21:18:15.040Z,1.90
2022-12-29T21:20:41.778Z,1.90
2022-12-29T21:23:09.500Z,1.80
2022-12-29T21:25:38.923Z,1.80
2022-12-29T21:28:10.159Z,1.90
2022-12-29T21:30:37.236Z,1.90
2022-12-29T21:33:04.725Z,1.80
2022-12-29T21:35:34.688Z,1.80
2022-12-29T21:38:01.529Z,1.80
2022-12-29T21:40:28.320Z,1.70
2022-12-29T21:42:55.124Z,1.70
2022-12-29T21:45:28.711Z,1.60
2022-12-29T21:48:18.067Z,1.50
2022-12-29T21:51:26.964Z,1.60
2022-12-29T21:54:18.887Z,1.60
2022-12-29T21:56:46.580Z,1.60
2022-12-29T21:59:32.649Z,1.70
2022-12-29T22:02:18.234Z,1.70
2022-12-29T22:05:03.869Z,1.70
2022-12-29T22:07:49.029Z,1.50
2022-12-29T22:10:34.263Z,1.50
2022-12-29T22:13:01.218Z,1.50
2022-12-29T22:15:29.767Z,1.50
2022-12-29T22:17:56.646Z,1.60
2022-12-29T22:20:25.582Z,1.60
2022-12-29T22:22:52.592Z,1.60
2022-12-29T22:25:20.500Z,1.60
2022-12-29T22:27:47.264Z,1.60
2022-12-29T22:30:14.253Z,1.60
2022-12-29T22:32:41.179Z,1.50
2022-12-29T22:35:08.673Z,1.50
2022-12-29T22:37:35.904Z,1.50
2022-12-29T22:40:02.724Z,1.50
2022-12-29T22:42:29.449Z,1.50
2022-12-29T22:44:56.219Z,1.50
2022-12-29T22:47:23.063Z,1.50
2022-12-29T22:49:50.233Z,1.50
2022-12-29T22:52:17.045Z,1.60
2022-12-29T22:54:43.813Z,1.60
2022-12-29T22:57:10.567Z,1.40
2022-12-29T22:59:37.462Z,1.30
2022-12-29T23:02:04.346Z,1.30
2022-12-29T23:07:18.029Z,1.30
2022-12-29T23:09:44.821Z,1.40
2022-12-29T23:12:11.527Z,1.50
2022-12-29T23:14:38.229Z,1.60
2022-12-29T23:17:04.981Z,1.60
2022-12-29T23:19:31.689Z,1.50
2022-12-29T23:21:58.449Z,1.50
2022-12-29T23:24:25.330Z,1.50
2022-12-29T23:26:52.069Z,1.50
2022-12-29T23:29:21.949Z,1.60
2022-12-29T23:31:48.913Z,1.50
2022-12-29T23:34:16.067Z,1.60
2022-12-29T23:36:42.840Z,1.50
2022-12-29T23:39:21.407Z,1.50
2022-12-29T23:41:48.200Z,1.50
2022-12-29T23:44:15.025Z,1.30
2022-12-29T23:46:41.915Z,1.40
2022-12-29T23:49:09.460Z,1.40
2022-12-29T23:51:36.294Z,1.40
2022-12-29T23:54:03.193Z,1.50
2022-12-29T23:56:29.930Z,1.50
2022-12-29T23:58:56.677Z,1.50
